Aeroporto :
LOGIN :

Iscrizione | Disclaimer

   EN    FR    IT 

 










Sommario :    VFR   VFR Marginale   IFR   IFR Intensivo   IFR Molto Intensivo
Visibilità : 
Base nubi : 
>= 8 km
>= 3000ft
5 / 8 km
1000 / 3000 ft
1500m / 5 km
500 / 1000 ft
800 / 1500m
200 / 500 ft
< 800m
< 200 ft
Simboli :   Temporali  Nebbia  Neve Forte  Precipitazioni Forti  Vento > 20 kt
SIGMETs :   Varie  Temporali  Ghiacco  Turbolenza  Onda orograficha  Ceneri Vulcaniche






- Altitudine del aeroporto : 1504 ft
- Codice IATA : PNA


LEPP - Noain Pamplona

ULTIMO METAR :
  • 180830Z 12017KT 090V150 9999 FEW050 22/14 Q1013

METARs OBSOLETI :
  • 180800Z 13015G25KT 090V180 9999 SCT045 21/13 Q1013
  • 180730Z 12016KT 9999 SCT045 BKN055 21/13 Q1013
  • 180700Z 12008KT 080V150 9999 SCT045 BKN055 20/13 Q1013
  • 180630Z 09007KT 050V140 9999 FEW017 SCT045 BKN050 20/14 Q1013
  • 180600Z 07005KT 030V120 9999 FEW017 SCT045 BKN050 20/14 Q1013

TAF TAF LEPP
Valido dal 18 a 03 ore il 19 a 03 ore UTC


180200Z 1803/1903 16009KT 9999 SCT050 TX27/1815Z TN15/1805Z
PROB40
TEMPO 1803/1808 RA SHRA SCT030TCU
PROB30
TEMPO 1803/1808 TS SCT035CB
TEMPO 1803/1820 15015G25KT
PROB40
TEMPO 1812/1819 15020G35KT
TEMPO 1812/1818 RA SHRA SCT030TCU



MetMap, La meteo Aeronautica in un colpo d'occhio ! - Copyright ORBIFLY Dicembre 2007 - Disclaimer

ORBIFLY MET'MAP TEAM :

Programmazione e sviluppo : Alexandra Zaïnal
Concezione : Baudouin d'Aumeries
Aiuto per la programmazione : Marc-Olivier Méhu
Supporto tecnico e logistico : Manuel Goepfert
Aiuto per la traduzione : Arnaldo La Scala

Contatto : metmap@orbifly.com




FONTI E CREDITI :

   NOAA